Mayer, MN (55360)

3:36 AM CST on February 14, 2016 (GMT -0600)
Mayer, MN | | Change Station
CLOSE
Current Station
Personal Weather Station
Location: Mayer, MN
Elevation: 977 ft
Nearby Weather Stations

Elev 977 ft 44.89 °N, 93.90 °W | Updated 49 minutes ago

Overcast
Overcast
11.3 °F
Feels Like -1 °F
N
9.2
Wind Variable Wind from North
Gusts 12.1 mph

Today
High -- | Low -- °F
--% Chance of Precip.
Yesterday
High -- | Low -- °F
Precip. -- in
Pressure 30.12 in
Visibility 10.0 miles
Clouds Overcast 5000 ft
Windchill -1 °F
Dew Point 1 °F
Humidity 62%
Rainfall 0.00 in
Snow Depth Not available.
7:18 AM 5:41 PM
Waxing Crescent, 40% visible
METAR KGYL 140915Z AUTO 13008KT 10SM OVC050 M10/M14 A3012 RMK AO2 T11051137
Pressure 30.12 in
Visibility 10.0 miles
Clouds Overcast 5000 ft
Windchill -1 °F
Dew Point 1 °F
Humidity 62%
Rainfall 0.00 in
Snow Depth Not available.
7:18 AM 5:41 PM
Waxing Crescent, 40% visible
METAR KGYL 140915Z AUTO 13008KT 10SM OVC050 M10/M14 A3012 RMK AO2 T11051137

10-Day Weather Forecast

Almanac

Astronomy

Feb. 14, 2016 Rise Set
Actual Time
Civil Twilight
Nautical Twilight
Astronomical Twilight
Moon
Length of Visible Light
Length of Day
Tomorrow will be .
, % of the Moon is Illuminated

Today's Extremes

State Highs State Lows

Community

WunderPhotos

Upload Photos

1,892,761 photos uploaded!

WunderBlog® & News

Nearby

Air Quality

  Air Quality AQ Index Pollutant
Not available.

Snow Depth

Station Depth Elevation

Earthquake Activity

City Distance Mag. Time & Date
Minimum magnitude displayed is 2.5.

Coastal Water Temperatures

Place Temperature

Stations

Nearby Weather Stations

Station Location Temp. Windchill Dew Point Humidity Wind Precip. Elev Updated Type
                   

Watches & Warnings

There are currently no watches in effect.